sensor_id;sensor_type;location;lat;lon;timestamp;pressure;altitude;pressure_sealevel;temperature;humidity
22025;BME280;11176;51.448;6.650;2022-12-17T00:01:54;45825.91;;;-141.29;100.00
22025;BME280;11176;51.448;6.650;2022-12-17T00:04:39;45813.94;;;-141.29;100.00
22025;BME280;11176;51.448;6.650;2022-12-17T00:07:24;45829.91;;;-141.29;100.00
22025;BME280;11176;51.448;6.650;2022-12-17T00:10:09;45837.91;;;-141.29;100.00
22025;BME280;11176;51.448;6.650;2022-12-17T00:12:54;45821.91;;;-141.29;100.00
22025;BME280;11176;51.448;6.650;2022-12-17T00:15:39;45825.91;;;-141.29;100.00
22025;BME280;11176;51.448;6.650;2022-12-17T00:18:24;45861.91;;;-141.29;100.00
22025;BME280;11176;51.448;6.650;2022-12-17T00:21:08;45845.91;;;-141.29;100.00
22025;BME280;11176;51.448;6.650;2022-12-17T00:23:54;45831.91;;;-141.29;100.00
22025;BME280;11176;51.448;6.650;2022-12-17T00:26:39;45861.91;;;-141.29;100.00
22025;BME280;11176;51.448;6.650;2022-12-17T00:29:24;45847.91;;;-141.29;100.00
22025;BME280;11176;51.448;6.650;2022-12-17T00:32:09;45853.91;;;-141.29;100.00
22025;BME280;11176;51.448;6.650;2022-12-17T00:34:54;45819.91;;;-141.29;100.00
22025;BME280;11176;51.448;6.650;2022-12-17T00:37:39;45825.91;;;-141.29;100.00
22025;BME280;11176;51.448;6.650;2022-12-17T00:40:24;45821.91;;;-141.29;100.00
22025;BME280;11176;51.448;6.650;2022-12-17T00:43:11;45839.91;;;-141.29;100.00
22025;BME280;11176;51.448;6.650;2022-12-17T00:45:57;45829.91;;;-141.29;100.00
22025;BME280;11176;51.448;6.650;2022-12-17T00:48:43;45847.91;;;-141.29;100.00
22025;BME280;11176;51.448;6.650;2022-12-17T00:51:28;45857.91;;;-141.29;100.00
22025;BME280;11176;51.448;6.650;2022-12-17T00:54:13;45809.94;;;-141.29;100.00
22025;BME280;11176;51.448;6.650;2022-12-17T00:56:58;45809.94;;;-141.29;100.00
22025;BME280;11176;51.448;6.650;2022-12-17T00:59:43;45839.91;;;-141.29;100.00
22025;BME280;11176;51.448;6.650;2022-12-17T01:02:29;45829.91;;;-141.29;100.00
22025;BME280;11176;51.448;6.650;2022-12-17T01:05:14;45837.91;;;-141.29;100.00
22025;BME280;11176;51.448;6.650;2022-12-17T01:08:09;45833.91;;;-141.29;100.00
22025;BME280;11176;51.448;6.650;2022-12-17T01:11:03;45827.91;;;-141.29;100.00
22025;BME280;11176;51.448;6.650;2022-12-17T01:13:49;45859.91;;;-141.29;100.00
22025;BME280;11176;51.448;6.650;2022-12-17T01:16:54;45833.91;;;-141.29;100.00
22025;BME280;11176;51.448;6.650;2022-12-17T01:19:39;45849.91;;;-141.29;100.00
22025;BME280;11176;51.448;6.650;2022-12-17T01:22:24;45841.91;;;-141.29;100.00
22025;BME280;11176;51.448;6.650;2022-12-17T01:25:10;45825.91;;;-141.29;100.00
22025;BME280;11176;51.448;6.650;2022-12-17T01:27:57;45839.91;;;-141.29;100.00
22025;BME280;11176;51.448;6.650;2022-12-17T01:30:42;45857.91;;;-141.29;100.00
22025;BME280;11176;51.448;6.650;2022-12-17T01:33:27;45865.88;;;-141.29;100.00
22025;BME280;11176;51.448;6.650;2022-12-17T01:36:12;45825.91;;;-141.29;100.00
22025;BME280;11176;51.448;6.650;2022-12-17T01:38:57;45845.91;;;-141.29;100.00
22025;BME280;11176;51.448;6.650;2022-12-17T01:41:42;45845.91;;;-141.29;100.00
22025;BME280;11176;51.448;6.650;2022-12-17T01:44:46;45857.91;;;-141.29;100.00
22025;BME280;11176;51.448;6.650;2022-12-17T01:47:54;45821.91;;;-141.29;100.00
22025;BME280;11176;51.448;6.650;2022-12-17T01:50:40;45835.91;;;-141.29;100.00
22025;BME280;11176;51.448;6.650;2022-12-17T01:53:34;45833.91;;;-141.29;100.00
22025;BME280;11176;51.448;6.650;2022-12-17T01:56:24;45831.91;;;-141.29;100.00
22025;BME280;11176;51.448;6.650;2022-12-17T01:59:11;45825.91;;;-141.29;100.00
22025;BME280;11176;51.448;6.650;2022-12-17T02:01:57;45847.91;;;-141.29;100.00
22025;BME280;11176;51.448;6.650;2022-12-17T02:04:43;45855.91;;;-141.29;100.00
22025;BME280;11176;51.448;6.650;2022-12-17T02:07:50;45841.91;;;-141.29;100.00
22025;BME280;11176;51.448;6.650;2022-12-17T02:10:55;45835.91;;;-141.29;100.00
22025;BME280;11176;51.448;6.650;2022-12-17T02:13:49;45839.91;;;-141.29;100.00
22025;BME280;11176;51.448;6.650;2022-12-17T02:16:47;45845.91;;;-141.29;100.00
22025;BME280;11176;51.448;6.650;2022-12-17T02:22:45;45835.91;;;-141.29;100.00
22025;BME280;11176;51.448;6.650;2022-12-17T02:25:54;45859.91;;;-141.29;100.00
22025;BME280;11176;51.448;6.650;2022-12-17T02:28:45;45861.91;;;-141.29;100.00
22025;BME280;11176;51.448;6.650;2022-12-17T02:31:33;45817.91;;;-141.29;100.00
22025;BME280;11176;51.448;6.650;2022-12-17T02:34:20;45833.91;;;-141.29;100.00
22025;BME280;11176;51.448;6.650;2022-12-17T02:37:05;45857.91;;;-141.29;100.00
22025;BME280;11176;51.448;6.650;2022-12-17T02:39:50;45849.91;;;-141.29;100.00
22025;BME280;11176;51.448;6.650;2022-12-17T02:42:36;45853.91;;;-141.29;100.00
22025;BME280;11176;51.448;6.650;2022-12-17T02:45:21;45829.91;;;-141.29;100.00
22025;BME280;11176;51.448;6.650;2022-12-17T02:48:08;45845.91;;;-141.29;100.00
22025;BME280;11176;51.448;6.650;2022-12-17T02:50:57;45855.91;;;-141.29;100.00
22025;BME280;11176;51.448;6.650;2022-12-17T02:53:44;45853.91;;;-141.29;100.00
22025;BME280;11176;51.448;6.650;2022-12-17T02:56:30;45857.91;;;-141.29;100.00
22025;BME280;11176;51.448;6.650;2022-12-17T02:59:16;45855.91;;;-141.29;100.00
22025;BME280;11176;51.448;6.650;2022-12-17T03:02:18;45849.91;;;-141.29;100.00
22025;BME280;11176;51.448;6.650;2022-12-17T03:05:05;45835.91;;;-141.29;100.00
22025;BME280;11176;51.448;6.650;2022-12-17T03:08:10;45821.91;;;-141.29;100.00
22025;BME280;11176;51.448;6.650;2022-12-17T03:10:55;45821.91;;;-141.29;100.00
22025;BME280;11176;51.448;6.650;2022-12-17T03:13:40;45827.91;;;-141.29;100.00
22025;BME280;11176;51.448;6.650;2022-12-17T03:16:26;45849.91;;;-141.29;100.00
22025;BME280;11176;51.448;6.650;2022-12-17T03:19:11;45833.91;;;-141.29;100.00
22025;BME280;11176;51.448;6.650;2022-12-17T03:21:56;45841.91;;;-141.29;100.00
22025;BME280;11176;51.448;6.650;2022-12-17T03:24:42;45837.91;;;-141.29;100.00
22025;BME280;11176;51.448;6.650;2022-12-17T03:27:27;45841.91;;;-141.29;100.00
22025;BME280;11176;51.448;6.650;2022-12-17T03:30:12;45829.91;;;-141.29;100.00
22025;BME280;11176;51.448;6.650;2022-12-17T03:33:01;45847.91;;;-141.29;100.00
22025;BME280;11176;51.448;6.650;2022-12-17T03:35:46;45841.91;;;-141.29;100.00
22025;BME280;11176;51.448;6.650;2022-12-17T03:38:31;45857.91;;;-141.29;100.00
22025;BME280;11176;51.448;6.650;2022-12-17T03:41:34;45857.91;;;-141.29;100.00
22025;BME280;11176;51.448;6.650;2022-12-17T03:44:19;45849.91;;;-141.29;100.00
22025;BME280;11176;51.448;6.650;2022-12-17T03:47:04;45861.91;;;-141.29;100.00
22025;BME280;11176;51.448;6.650;2022-12-17T03:49:49;45853.91;;;-141.29;100.00
22025;BME280;11176;51.448;6.650;2022-12-17T03:52:34;45833.91;;;-141.29;100.00
22025;BME280;11176;51.448;6.650;2022-12-17T03:55:19;45841.91;;;-141.29;100.00
22025;BME280;11176;51.448;6.650;2022-12-17T03:58:04;45833.91;;;-141.29;100.00
22025;BME280;11176;51.448;6.650;2022-12-17T04:00:49;45857.91;;;-141.29;100.00
22025;BME280;11176;51.448;6.650;2022-12-17T04:03:34;45837.91;;;-141.29;100.00
22025;BME280;11176;51.448;6.650;2022-12-17T04:06:20;45847.91;;;-141.29;100.00
22025;BME280;11176;51.448;6.650;2022-12-17T04:09:04;45837.91;;;-141.29;100.00
22025;BME280;11176;51.448;6.650;2022-12-17T04:11:49;45859.91;;;-141.29;100.00
22025;BME280;11176;51.448;6.650;2022-12-17T04:14:35;45837.91;;;-141.29;100.00
22025;BME280;11176;51.448;6.650;2022-12-17T04:17:20;45853.91;;;-141.29;100.00
22025;BME280;11176;51.448;6.650;2022-12-17T04:20:05;45853.91;;;-141.29;100.00
22025;BME280;11176;51.448;6.650;2022-12-17T04:22:50;45861.91;;;-141.29;100.00
22025;BME280;11176;51.448;6.650;2022-12-17T04:25:35;45847.91;;;-141.29;100.00
22025;BME280;11176;51.448;6.650;2022-12-17T04:28:20;45861.91;;;-141.29;100.00
22025;BME280;11176;51.448;6.650;2022-12-17T04:31:05;45847.91;;;-141.29;100.00
22025;BME280;11176;51.448;6.650;2022-12-17T04:33:50;45857.91;;;-141.29;100.00
22025;BME280;11176;51.448;6.650;2022-12-17T04:36:35;45833.91;;;-141.29;100.00
22025;BME280;11176;51.448;6.650;2022-12-17T04:39:20;45867.88;;;-141.29;100.00
22025;BME280;11176;51.448;6.650;2022-12-17T04:42:05;45841.91;;;-141.29;100.00
22025;BME280;11176;51.448;6.650;2022-12-17T04:44:50;45849.91;;;-141.29;100.00
22025;BME280;11176;51.448;6.650;2022-12-17T04:47:35;45853.91;;;-141.29;100.00
22025;BME280;11176;51.448;6.650;2022-12-17T04:50:20;45847.91;;;-141.29;100.00
22025;BME280;11176;51.448;6.650;2022-12-17T04:53:05;45849.91;;;-141.29;100.00
22025;BME280;11176;51.448;6.650;2022-12-17T04:55:53;45849.91;;;-141.29;100.00
22025;BME280;11176;51.448;6.650;2022-12-17T04:58:39;45821.91;;;-141.29;100.00
22025;BME280;11176;51.448;6.650;2022-12-17T05:01:24;45833.91;;;-141.29;100.00
22025;BME280;11176;51.448;6.650;2022-12-17T05:04:10;45867.88;;;-141.29;100.00
22025;BME280;11176;51.448;6.650;2022-12-17T05:06:55;45829.91;;;-141.29;100.00
22025;BME280;11176;51.448;6.650;2022-12-17T05:09:40;45857.91;;;-141.29;100.00
22025;BME280;11176;51.448;6.650;2022-12-17T05:12:25;45851.91;;;-141.29;100.00
22025;BME280;11176;51.448;6.650;2022-12-17T05:15:10;45853.91;;;-141.29;100.00
22025;BME280;11176;51.448;6.650;2022-12-17T05:18:03;45849.91;;;-141.29;100.00
22025;BME280;11176;51.448;6.650;2022-12-17T05:20:48;45825.91;;;-141.29;100.00
22025;BME280;11176;51.448;6.650;2022-12-17T05:23:33;45829.91;;;-141.29;100.00
22025;BME280;11176;51.448;6.650;2022-12-17T05:26:21;45881.88;;;-141.29;100.00
22025;BME280;11176;51.448;6.650;2022-12-17T05:29:07;45833.91;;;-141.29;100.00
22025;BME280;11176;51.448;6.650;2022-12-17T05:31:52;45837.91;;;-141.29;100.00
22025;BME280;11176;51.448;6.650;2022-12-17T05:34:44;45849.91;;;-141.29;100.00
22025;BME280;11176;51.448;6.650;2022-12-17T05:37:30;45869.88;;;-141.29;100.00
22025;BME280;11176;51.448;6.650;2022-12-17T05:40:15;45853.91;;;-141.29;100.00
22025;BME280;11176;51.448;6.650;2022-12-17T05:43:03;45857.91;;;-141.29;100.00
22025;BME280;11176;51.448;6.650;2022-12-17T05:45:49;45839.91;;;-141.29;100.00
22025;BME280;11176;51.448;6.650;2022-12-17T05:48:35;45865.88;;;-141.29;100.00
22025;BME280;11176;51.448;6.650;2022-12-17T05:51:20;45853.91;;;-141.29;100.00
22025;BME280;11176;51.448;6.650;2022-12-17T05:54:06;45873.88;;;-141.29;100.00
22025;BME280;11176;51.448;6.650;2022-12-17T05:56:52;45853.91;;;-141.29;100.00
22025;BME280;11176;51.448;6.650;2022-12-17T05:59:37;45853.91;;;-141.29;100.00
22025;BME280;11176;51.448;6.650;2022-12-17T06:02:22;45855.91;;;-141.29;100.00
22025;BME280;11176;51.448;6.650;2022-12-17T06:05:08;45825.91;;;-141.29;100.00
22025;BME280;11176;51.448;6.650;2022-12-17T06:08:01;45873.88;;;-141.29;100.00
22025;BME280;11176;51.448;6.650;2022-12-17T06:10:46;45863.91;;;-141.29;100.00
22025;BME280;11176;51.448;6.650;2022-12-17T06:13:31;45851.91;;;-141.29;100.00
22025;BME280;11176;51.448;6.650;2022-12-17T06:16:16;45857.91;;;-141.29;100.00
22025;BME280;11176;51.448;6.650;2022-12-17T06:19:02;45841.91;;;-141.29;100.00
22025;BME280;11176;51.448;6.650;2022-12-17T06:21:47;45829.91;;;-141.29;100.00
22025;BME280;11176;51.448;6.650;2022-12-17T06:24:32;45857.91;;;-141.29;100.00
22025;BME280;11176;51.448;6.650;2022-12-17T06:27:17;45825.91;;;-141.29;100.00
22025;BME280;11176;51.448;6.650;2022-12-17T06:30:02;45831.91;;;-141.29;100.00
22025;BME280;11176;51.448;6.650;2022-12-17T06:32:47;45863.91;;;-141.29;100.00
22025;BME280;11176;51.448;6.650;2022-12-17T06:35:32;45841.91;;;-141.29;100.00
22025;BME280;11176;51.448;6.650;2022-12-17T06:38:17;45849.91;;;-141.29;100.00
22025;BME280;11176;51.448;6.650;2022-12-17T06:41:19;45845.91;;;-141.29;100.00
22025;BME280;11176;51.448;6.650;2022-12-17T06:44:04;45837.91;;;-141.29;100.00
22025;BME280;11176;51.448;6.650;2022-12-17T06:46:49;45867.88;;;-141.29;100.00
22025;BME280;11176;51.448;6.650;2022-12-17T06:49:34;45833.91;;;-141.29;100.00
22025;BME280;11176;51.448;6.650;2022-12-17T06:52:26;45861.91;;;-141.29;100.00
22025;BME280;11176;51.448;6.650;2022-12-17T06:55:11;45853.91;;;-141.29;100.00
22025;BME280;11176;51.448;6.650;2022-12-17T06:57:57;45843.91;;;-141.29;100.00
22025;BME280;11176;51.448;6.650;2022-12-17T07:00:43;45845.91;;;-141.29;100.00
22025;BME280;11176;51.448;6.650;2022-12-17T07:03:28;45821.91;;;-141.29;100.00
22025;BME280;11176;51.448;6.650;2022-12-17T07:06:13;45851.91;;;-141.29;100.00
22025;BME280;11176;51.448;6.650;2022-12-17T07:08:59;45839.91;;;-141.29;100.00
22025;BME280;11176;51.448;6.650;2022-12-17T07:11:45;45849.91;;;-141.29;100.00
22025;BME280;11176;51.448;6.650;2022-12-17T07:14:30;45851.91;;;-141.29;100.00
22025;BME280;11176;51.448;6.650;2022-12-17T07:17:16;45841.91;;;-141.29;100.00
22025;BME280;11176;51.448;6.650;2022-12-17T07:20:00;45847.91;;;-141.29;100.00
22025;BME280;11176;51.448;6.650;2022-12-17T07:22:45;45833.91;;;-141.29;100.00
22025;BME280;11176;51.448;6.650;2022-12-17T07:25:30;45833.91;;;-141.29;99.56
22025;BME280;11176;51.448;6.650;2022-12-17T07:28:16;45833.91;;;-141.29;100.00
22025;BME280;11176;51.448;6.650;2022-12-17T07:31:00;45865.88;;;-141.29;99.96
22025;BME280;11176;51.448;6.650;2022-12-17T07:33:46;45825.91;;;-141.29;99.18
22025;BME280;11176;51.448;6.650;2022-12-17T07:36:30;45831.91;;;-141.29;99.05
22025;BME280;11176;51.448;6.650;2022-12-17T07:39:15;45857.91;;;-141.29;98.12
22025;BME280;11176;51.448;6.650;2022-12-17T07:42:00;45847.91;;;-141.29;97.16
22025;BME280;11176;51.448;6.650;2022-12-17T07:44:45;45851.91;;;-141.29;96.61
22025;BME280;11176;51.448;6.650;2022-12-17T07:47:30;45869.88;;;-141.29;96.36
22025;BME280;11176;51.448;6.650;2022-12-17T07:50:14;45847.91;;;-141.29;96.56
22025;BME280;11176;51.448;6.650;2022-12-17T07:53:00;45857.91;;;-141.29;96.22
22025;BME280;11176;51.448;6.650;2022-12-17T07:55:46;45861.91;;;-141.29;97.01
22025;BME280;11176;51.448;6.650;2022-12-17T07:58:31;45849.91;;;-141.29;97.73
22025;BME280;11176;51.448;6.650;2022-12-17T08:01:17;45849.91;;;-141.29;97.21
22025;BME280;11176;51.448;6.650;2022-12-17T08:04:02;45849.91;;;-141.29;97.41
22025;BME280;11176;51.448;6.650;2022-12-17T08:06:47;45829.91;;;-141.29;98.07
22025;BME280;11176;51.448;6.650;2022-12-17T08:09:38;45859.91;;;-141.29;97.57
22025;BME280;11176;51.448;6.650;2022-12-17T08:12:23;45873.88;;;-141.29;97.28
22025;BME280;11176;51.448;6.650;2022-12-17T08:15:09;45853.91;;;-141.29;97.38
22025;BME280;11176;51.448;6.650;2022-12-17T08:18:01;45849.91;;;-141.29;97.15
22025;BME280;11176;51.448;6.650;2022-12-17T08:20:51;45865.88;;;-141.29;98.00
22025;BME280;11176;51.448;6.650;2022-12-17T08:23:36;45843.91;;;-141.29;97.67
22025;BME280;11176;51.448;6.650;2022-12-17T08:26:21;45833.91;;;-141.29;96.87
22025;BME280;11176;51.448;6.650;2022-12-17T08:29:13;45843.91;;;-141.29;97.22
22025;BME280;11176;51.448;6.650;2022-12-17T08:31:58;45857.91;;;-141.29;97.36
22025;BME280;11176;51.448;6.650;2022-12-17T08:34:42;45861.91;;;-141.29;97.21
22025;BME280;11176;51.448;6.650;2022-12-17T08:37:27;45861.91;;;-141.29;97.24
22025;BME280;11176;51.448;6.650;2022-12-17T08:40:14;45861.91;;;-141.29;97.42
22025;BME280;11176;51.448;6.650;2022-12-17T08:42:59;45871.88;;;-141.29;97.48
22025;BME280;11176;51.448;6.650;2022-12-17T08:45:48;45883.88;;;-141.29;96.20
22025;BME280;11176;51.448;6.650;2022-12-17T08:48:34;45845.91;;;-141.29;95.92
22025;BME280;11176;51.448;6.650;2022-12-17T08:51:20;45869.88;;;-141.29;96.07
22025;BME280;11176;51.448;6.650;2022-12-17T08:54:05;45855.91;;;-141.29;95.91
22025;BME280;11176;51.448;6.650;2022-12-17T08:56:51;45839.91;;;-141.29;96.47
22025;BME280;11176;51.448;6.650;2022-12-17T08:59:36;45861.91;;;-141.29;96.97
22025;BME280;11176;51.448;6.650;2022-12-17T09:02:21;45855.91;;;-141.29;97.56
22025;BME280;11176;51.448;6.650;2022-12-17T09:05:07;45849.91;;;-141.29;98.03
22025;BME280;11176;51.448;6.650;2022-12-17T09:11:59;45857.91;;;-141.29;98.35
22025;BME280;11176;51.448;6.650;2022-12-17T09:14:44;45865.88;;;-141.29;98.44
22025;BME280;11176;51.448;6.650;2022-12-17T09:17:29;45853.91;;;-141.29;98.38
22025;BME280;11176;51.448;6.650;2022-12-17T09:20:14;45841.91;;;-141.29;98.58
22025;BME280;11176;51.448;6.650;2022-12-17T09:23:00;45869.88;;;-141.29;99.12
22025;BME280;11176;51.448;6.650;2022-12-17T09:25:51;45861.91;;;-141.29;99.36
22025;BME280;11176;51.448;6.650;2022-12-17T09:32:48;45853.91;;;-141.29;99.46
22025;BME280;11176;51.448;6.650;2022-12-17T09:35:38;45829.91;;;-141.29;98.35
22025;BME280;11176;51.448;6.650;2022-12-17T09:38:23;45833.91;;;-141.29;98.20
22025;BME280;11176;51.448;6.650;2022-12-17T09:41:24;45849.91;;;-141.29;98.43
22025;BME280;11176;51.448;6.650;2022-12-17T09:44:43;45865.88;;;-141.29;98.59
22025;BME280;11176;51.448;6.650;2022-12-17T09:50:16;45851.91;;;-141.29;98.72
22025;BME280;11176;51.448;6.650;2022-12-17T09:53:02;45859.91;;;-141.29;99.24
22025;BME280;11176;51.448;6.650;2022-12-17T09:55:53;45869.88;;;-141.29;99.54
22025;BME280;11176;51.448;6.650;2022-12-17T09:58:39;45861.91;;;-141.29;99.13
22025;BME280;11176;51.448;6.650;2022-12-17T10:01:29;45861.91;;;-141.29;99.27
22025;BME280;11176;51.448;6.650;2022-12-17T10:04:30;45883.88;;;-141.29;99.12
22025;BME280;11176;51.448;6.650;2022-12-17T10:07:21;45855.91;;;-141.29;99.71
22025;BME280;11176;51.448;6.650;2022-12-17T10:10:46;45869.88;;;-141.29;99.60
22025;BME280;11176;51.448;6.650;2022-12-17T10:13:25;45877.88;;;-141.29;100.00
22025;BME280;11176;51.448;6.650;2022-12-17T10:16:32;45865.88;;;-141.29;100.00
22025;BME280;11176;51.448;6.650;2022-12-17T10:19:31;45865.88;;;-141.29;99.48
22025;BME280;11176;51.448;6.650;2022-12-17T10:22:19;45869.88;;;-141.29;99.89
22025;BME280;11176;51.448;6.650;2022-12-17T10:25:08;45857.91;;;-141.29;100.00
22025;BME280;11176;51.448;6.650;2022-12-17T10:28:05;45875.88;;;-141.29;100.00
22025;BME280;11176;51.448;6.650;2022-12-17T10:30:51;45857.91;;;-141.29;99.74
22025;BME280;11176;51.448;6.650;2022-12-17T10:33:38;45853.91;;;-141.29;99.51
22025;BME280;11176;51.448;6.650;2022-12-17T10:36:24;45859.91;;;-141.29;98.86
22025;BME280;11176;51.448;6.650;2022-12-17T10:39:15;45853.91;;;-141.29;98.76
22025;BME280;11176;51.448;6.650;2022-12-17T10:42:01;45859.91;;;-141.29;98.89
22025;BME280;11176;51.448;6.650;2022-12-17T10:44:46;45869.88;;;-141.29;98.28
22025;BME280;11176;51.448;6.650;2022-12-17T10:47:32;45869.88;;;-141.29;98.39
22025;BME280;11176;51.448;6.650;2022-12-17T10:50:22;45861.91;;;-141.29;98.10
22025;BME280;11176;51.448;6.650;2022-12-17T10:53:21;45829.91;;;-141.29;98.13
22025;BME280;11176;51.448;6.650;2022-12-17T10:56:18;45877.88;;;-141.29;97.77
22025;BME280;11176;51.448;6.650;2022-12-17T10:59:10;45877.88;;;-141.29;97.51
22025;BME280;11176;51.448;6.650;2022-12-17T11:01:57;45869.88;;;-141.29;98.07
22025;BME280;11176;51.448;6.650;2022-12-17T11:04:51;45869.88;;;-141.29;97.26
22025;BME280;11176;51.448;6.650;2022-12-17T11:07:39;45873.88;;;-141.29;97.34
22025;BME280;11176;51.448;6.650;2022-12-17T11:10:28;45871.88;;;-141.29;96.94
22025;BME280;11176;51.448;6.650;2022-12-17T11:13:35;45849.91;;;-141.29;97.00
22025;BME280;11176;51.448;6.650;2022-12-17T11:16:31;45877.88;;;-141.29;96.92
22025;BME280;11176;51.448;6.650;2022-12-17T11:19:33;45887.88;;;-141.29;97.24
22025;BME280;11176;51.448;6.650;2022-12-17T11:22:51;45875.88;;;-141.29;97.74
22025;BME280;11176;51.448;6.650;2022-12-17T11:25:41;45897.88;;;-141.29;97.12
22025;BME280;11176;51.448;6.650;2022-12-17T11:28:29;45873.88;;;-141.29;97.52
22025;BME280;11176;51.448;6.650;2022-12-17T11:37:21;45871.88;;;-141.29;97.74
22025;BME280;11176;51.448;6.650;2022-12-17T11:43:02;45861.91;;;-141.29;97.64
22025;BME280;11176;51.448;6.650;2022-12-17T11:49:22;45861.91;;;-141.29;96.83
22025;BME280;11176;51.448;6.650;2022-12-17T11:55:33;45869.88;;;-141.29;97.49
22025;BME280;11176;51.448;6.650;2022-12-17T11:58:21;45879.88;;;-141.29;97.05
22025;BME280;11176;51.448;6.650;2022-12-17T12:20:33;45897.88;;;-141.29;96.76
22025;BME280;11176;51.448;6.650;2022-12-17T12:23:41;45861.91;;;-141.29;96.56
22025;BME280;11176;51.448;6.650;2022-12-17T12:27:02;45865.88;;;-141.29;96.77
22025;BME280;11176;51.448;6.650;2022-12-17T12:33:12;45853.91;;;-141.29;96.53
22025;BME280;11176;51.448;6.650;2022-12-17T12:36:02;45863.91;;;-141.29;96.40
22025;BME280;11176;51.448;6.650;2022-12-17T12:38:53;45875.88;;;-141.29;96.40
22025;BME280;11176;51.448;6.650;2022-12-17T12:44:54;45885.88;;;-141.29;95.93
22025;BME280;11176;51.448;6.650;2022-12-17T12:47:55;45873.88;;;-141.29;96.47
22025;BME280;11176;51.448;6.650;2022-12-17T12:51:02;45873.88;;;-141.29;97.07
22025;BME280;11176;51.448;6.650;2022-12-17T12:54:01;45897.88;;;-141.29;96.55
22025;BME280;11176;51.448;6.650;2022-12-17T12:57:03;45893.88;;;-141.29;96.20
22025;BME280;11176;51.448;6.650;2022-12-17T12:59:48;45883.88;;;-141.29;96.54
22025;BME280;11176;51.448;6.650;2022-12-17T13:02:34;45883.88;;;-141.29;96.84
22025;BME280;11176;51.448;6.650;2022-12-17T13:05:30;45869.88;;;-141.29;95.84
22025;BME280;11176;51.448;6.650;2022-12-17T13:10:34;45885.88;;;-141.29;96.25
22025;BME280;11176;51.448;6.650;2022-12-17T13:13:20;45877.88;;;-141.29;96.83
22025;BME280;11176;51.448;6.650;2022-12-17T13:15:55;45865.88;;;-141.29;96.51
22025;BME280;11176;51.448;6.650;2022-12-17T13:18:31;45885.88;;;-141.29;96.11
22025;BME280;11176;51.448;6.650;2022-12-17T13:23:35;45885.88;;;-141.29;95.98
22025;BME280;11176;51.448;6.650;2022-12-17T13:26:16;45893.88;;;-141.29;96.17
22025;BME280;11176;51.448;6.650;2022-12-17T13:29:33;45891.88;;;-141.29;95.87
22025;BME280;11176;51.448;6.650;2022-12-17T13:31:56;45905.88;;;-141.29;95.82
22025;BME280;11176;51.448;6.650;2022-12-17T13:34:42;45889.88;;;-141.29;95.91
22025;BME280;11176;51.448;6.650;2022-12-17T13:37:25;45899.88;;;-141.29;96.02
22025;BME280;11176;51.448;6.650;2022-12-17T13:42:31;45911.84;;;-141.29;96.49
22025;BME280;11176;51.448;6.650;2022-12-17T13:45:00;45889.88;;;-141.29;96.37
22025;BME280;11176;51.448;6.650;2022-12-17T13:47:29;45897.88;;;-141.29;96.78
22025;BME280;11176;51.448;6.650;2022-12-17T13:49:58;45885.88;;;-141.29;95.90
22025;BME280;11176;51.448;6.650;2022-12-17T13:52:45;45897.88;;;-141.29;95.66
22025;BME280;11176;51.448;6.650;2022-12-17T13:55:22;45881.88;;;-141.29;96.25
22025;BME280;11176;51.448;6.650;2022-12-17T13:57:51;45885.88;;;-141.29;96.92
22025;BME280;11176;51.448;6.650;2022-12-17T14:00:27;45871.88;;;-141.29;96.68
22025;BME280;11176;51.448;6.650;2022-12-17T14:02:54;45871.88;;;-141.29;96.76
22025;BME280;11176;51.448;6.650;2022-12-17T14:07:59;45889.88;;;-141.29;96.88
22025;BME280;11176;51.448;6.650;2022-12-17T14:10:27;45877.88;;;-141.29;96.67
22025;BME280;11176;51.448;6.650;2022-12-17T14:13:09;45881.88;;;-141.29;96.74
22025;BME280;11176;51.448;6.650;2022-12-17T14:15:44;45885.88;;;-141.29;96.60
22025;BME280;11176;51.448;6.650;2022-12-17T14:18:15;45889.88;;;-141.29;96.67
22025;BME280;11176;51.448;6.650;2022-12-17T14:20:44;45901.88;;;-141.29;96.58
22025;BME280;11176;51.448;6.650;2022-12-17T14:23:16;45893.88;;;-141.29;96.26
22025;BME280;11176;51.448;6.650;2022-12-17T14:25:47;45903.88;;;-141.29;96.90
22025;BME280;11176;51.448;6.650;2022-12-17T14:28:29;45911.84;;;-141.29;96.74
22025;BME280;11176;51.448;6.650;2022-12-17T14:31:23;45877.88;;;-141.29;96.97
22025;BME280;11176;51.448;6.650;2022-12-17T14:34:03;45907.88;;;-141.29;97.48
22025;BME280;11176;51.448;6.650;2022-12-17T14:36:36;45915.84;;;-141.29;97.68
22025;BME280;11176;51.448;6.650;2022-12-17T14:39:24;45893.88;;;-141.29;97.34
22025;BME280;11176;51.448;6.650;2022-12-17T14:41:53;45923.84;;;-141.29;97.47
22025;BME280;11176;51.448;6.650;2022-12-17T14:44:48;45897.88;;;-141.29;97.43
22025;BME280;11176;51.448;6.650;2022-12-17T14:47:24;45889.88;;;-141.29;97.43
22025;BME280;11176;51.448;6.650;2022-12-17T14:50:05;45907.88;;;-141.29;97.76
22025;BME280;11176;51.448;6.650;2022-12-17T14:52:34;45877.88;;;-141.29;97.56
22025;BME280;11176;51.448;6.650;2022-12-17T14:55:36;45909.88;;;-141.29;97.36
22025;BME280;11176;51.448;6.650;2022-12-17T15:00:41;45909.88;;;-141.29;97.79
22025;BME280;11176;51.448;6.650;2022-12-17T15:03:12;45905.88;;;-141.29;97.94
22025;BME280;11176;51.448;6.650;2022-12-17T15:05:41;45921.84;;;-141.29;97.98
22025;BME280;11176;51.448;6.650;2022-12-17T15:08:09;45891.88;;;-141.29;97.28
22025;BME280;11176;51.448;6.650;2022-12-17T15:10:36;45891.88;;;-141.29;97.52
22025;BME280;11176;51.448;6.650;2022-12-17T15:13:03;45905.88;;;-141.29;96.76
22025;BME280;11176;51.448;6.650;2022-12-17T15:15:29;45919.84;;;-141.29;96.61
22025;BME280;11176;51.448;6.650;2022-12-17T15:17:55;45907.88;;;-141.29;96.27
22025;BME280;11176;51.448;6.650;2022-12-17T15:20:22;45909.88;;;-141.29;95.71
22025;BME280;11176;51.448;6.650;2022-12-17T15:22:48;45931.84;;;-141.29;95.56